sensor_id;sensor_type;location;lat;lon;timestamp;P1;durP1;ratioP1;P2;durP2;ratioP2
32228;SDS011;18717;48.034;11.186;2024-01-15T00:02:08;9.32;;;8.07;;
32228;SDS011;18717;48.034;11.186;2024-01-15T00:04:36;12.32;;;7.95;;
32228;SDS011;18717;48.034;11.186;2024-01-15T00:07:06;12.10;;;8.70;;
32228;SDS011;18717;48.034;11.186;2024-01-15T00:09:34;13.27;;;9.43;;
32228;SDS011;18717;48.034;11.186;2024-01-15T00:12:02;8.35;;;7.18;;
32228;SDS011;18717;48.034;11.186;2024-01-15T00:14:30;10.45;;;8.07;;
32228;SDS011;18717;48.034;11.186;2024-01-15T00:16:58;10.68;;;8.23;;
32228;SDS011;18717;48.034;11.186;2024-01-15T00:19:25;10.40;;;9.23;;
32228;SDS011;18717;48.034;11.186;2024-01-15T00:21:53;12.80;;;8.50;;
32228;SDS011;18717;48.034;11.186;2024-01-15T00:24:22;9.55;;;7.65;;
32228;SDS011;18717;48.034;11.186;2024-01-15T00:26:50;12.50;;;8.85;;
32228;SDS011;18717;48.034;11.186;2024-01-15T00:29:19;10.23;;;7.60;;
32228;SDS011;18717;48.034;11.186;2024-01-15T00:31:47;11.43;;;7.72;;
32228;SDS011;18717;48.034;11.186;2024-01-15T00:34:15;9.15;;;8.23;;
32228;SDS011;18717;48.034;11.186;2024-01-15T00:36:43;13.35;;;9.38;;
32228;SDS011;18717;48.034;11.186;2024-01-15T00:39:10;11.23;;;8.20;;
32228;SDS011;18717;48.034;11.186;2024-01-15T00:41:40;10.23;;;9.10;;
32228;SDS011;18717;48.034;11.186;2024-01-15T00:44:07;12.02;;;9.02;;
32228;SDS011;18717;48.034;11.186;2024-01-15T00:46:41;9.77;;;8.10;;
32228;SDS011;18717;48.034;11.186;2024-01-15T00:49:09;9.90;;;8.38;;
32228;SDS011;18717;48.034;11.186;2024-01-15T00:51:38;14.85;;;9.25;;
32228;SDS011;18717;48.034;11.186;2024-01-15T00:54:06;15.73;;;9.57;;
32228;SDS011;18717;48.034;11.186;2024-01-15T00:56:34;14.98;;;9.23;;
32228;SDS011;18717;48.034;11.186;2024-01-15T00:59:03;16.67;;;10.23;;
32228;SDS011;18717;48.034;11.186;2024-01-15T01:01:31;13.82;;;10.35;;
32228;SDS011;18717;48.034;11.186;2024-01-15T01:03:58;18.65;;;10.27;;
32228;SDS011;18717;48.034;11.186;2024-01-15T01:06:26;17.58;;;10.65;;
32228;SDS011;18717;48.034;11.186;2024-01-15T01:08:57;16.58;;;10.52;;
32228;SDS011;18717;48.034;11.186;2024-01-15T01:11:24;18.70;;;10.80;;
32228;SDS011;18717;48.034;11.186;2024-01-15T01:13:52;21.23;;;11.95;;
32228;SDS011;18717;48.034;11.186;2024-01-15T01:16:21;17.98;;;11.73;;
32228;SDS011;18717;48.034;11.186;2024-01-15T01:18:49;20.55;;;11.65;;
32228;SDS011;18717;48.034;11.186;2024-01-15T01:21:17;19.83;;;11.40;;
32228;SDS011;18717;48.034;11.186;2024-01-15T01:23:45;21.35;;;13.55;;
32228;SDS011;18717;48.034;11.186;2024-01-15T01:26:15;22.83;;;12.93;;
32228;SDS011;18717;48.034;11.186;2024-01-15T01:28:43;25.05;;;12.70;;
32228;SDS011;18717;48.034;11.186;2024-01-15T01:31:10;22.95;;;13.05;;
32228;SDS011;18717;48.034;11.186;2024-01-15T01:33:39;20.05;;;12.57;;
32228;SDS011;18717;48.034;11.186;2024-01-15T01:36:07;20.52;;;12.90;;
32228;SDS011;18717;48.034;11.186;2024-01-15T01:38:35;26.10;;;13.95;;
32228;SDS011;18717;48.034;11.186;2024-01-15T01:41:03;22.60;;;13.32;;
32228;SDS011;18717;48.034;11.186;2024-01-15T01:43:31;25.10;;;14.15;;
32228;SDS011;18717;48.034;11.186;2024-01-15T01:45:59;28.40;;;14.18;;
32228;SDS011;18717;48.034;11.186;2024-01-15T01:48:28;25.88;;;14.27;;
32228;SDS011;18717;48.034;11.186;2024-01-15T01:50:58;28.48;;;15.00;;
32228;SDS011;18717;48.034;11.186;2024-01-15T01:53:26;25.33;;;14.20;;
32228;SDS011;18717;48.034;11.186;2024-01-15T01:55:55;24.58;;;13.23;;
32228;SDS011;18717;48.034;11.186;2024-01-15T01:58:23;24.38;;;13.73;;
32228;SDS011;18717;48.034;11.186;2024-01-15T02:00:51;23.98;;;13.73;;
32228;SDS011;18717;48.034;11.186;2024-01-15T02:03:19;20.45;;;12.68;;
32228;SDS011;18717;48.034;11.186;2024-01-15T02:05:47;25.65;;;13.60;;
32228;SDS011;18717;48.034;11.186;2024-01-15T02:08:18;26.77;;;14.50;;
32228;SDS011;18717;48.034;11.186;2024-01-15T02:10:45;27.73;;;13.30;;
32228;SDS011;18717;48.034;11.186;2024-01-15T02:13:13;24.77;;;13.32;;
32228;SDS011;18717;48.034;11.186;2024-01-15T02:15:41;23.80;;;14.68;;
32228;SDS011;18717;48.034;11.186;2024-01-15T02:18:09;23.27;;;14.15;;
32228;SDS011;18717;48.034;11.186;2024-01-15T02:20:37;25.75;;;14.07;;
32228;SDS011;18717;48.034;11.186;2024-01-15T02:23:08;20.33;;;11.18;;
32228;SDS011;18717;48.034;11.186;2024-01-15T02:25:37;17.15;;;9.88;;
32228;SDS011;18717;48.034;11.186;2024-01-15T02:28:06;24.63;;;10.57;;
32228;SDS011;18717;48.034;11.186;2024-01-15T02:30:34;22.15;;;11.65;;
32228;SDS011;18717;48.034;11.186;2024-01-15T02:33:05;26.88;;;11.40;;
32228;SDS011;18717;48.034;11.186;2024-01-15T02:35:33;20.10;;;12.15;;
32228;SDS011;18717;48.034;11.186;2024-01-15T02:38:02;21.63;;;10.75;;
32228;SDS011;18717;48.034;11.186;2024-01-15T02:40:32;19.65;;;11.65;;
32228;SDS011;18717;48.034;11.186;2024-01-15T02:43:00;21.08;;;12.57;;
32228;SDS011;18717;48.034;11.186;2024-01-15T02:45:27;27.38;;;12.40;;
32228;SDS011;18717;48.034;11.186;2024-01-15T02:47:55;14.93;;;10.80;;
32228;SDS011;18717;48.034;11.186;2024-01-15T02:50:23;21.27;;;10.90;;
32228;SDS011;18717;48.034;11.186;2024-01-15T02:52:51;17.88;;;10.75;;
32228;SDS011;18717;48.034;11.186;2024-01-15T02:55:18;21.70;;;11.77;;
32228;SDS011;18717;48.034;11.186;2024-01-15T02:57:48;25.77;;;14.13;;
32228;SDS011;18717;48.034;11.186;2024-01-15T03:00:16;19.55;;;11.00;;
32228;SDS011;18717;48.034;11.186;2024-01-15T03:02:44;21.45;;;11.88;;
32228;SDS011;18717;48.034;11.186;2024-01-15T03:05:14;22.05;;;10.70;;
32228;SDS011;18717;48.034;11.186;2024-01-15T03:07:42;22.20;;;10.52;;
32228;SDS011;18717;48.034;11.186;2024-01-15T03:10:10;27.77;;;11.40;;
32228;SDS011;18717;48.034;11.186;2024-01-15T03:12:38;18.25;;;11.50;;
32228;SDS011;18717;48.034;11.186;2024-01-15T03:15:07;18.95;;;9.57;;
32228;SDS011;18717;48.034;11.186;2024-01-15T03:17:35;18.90;;;10.10;;
32228;SDS011;18717;48.034;11.186;2024-01-15T03:20:03;22.08;;;11.30;;
32228;SDS011;18717;48.034;11.186;2024-01-15T03:22:31;23.48;;;12.40;;
32228;SDS011;18717;48.034;11.186;2024-01-15T03:24:59;22.83;;;11.18;;
32228;SDS011;18717;48.034;11.186;2024-01-15T03:27:27;22.65;;;11.23;;
32228;SDS011;18717;48.034;11.186;2024-01-15T03:29:55;21.48;;;11.95;;
32228;SDS011;18717;48.034;11.186;2024-01-15T03:32:24;19.77;;;11.15;;
32228;SDS011;18717;48.034;11.186;2024-01-15T03:34:51;22.35;;;11.02;;
32228;SDS011;18717;48.034;11.186;2024-01-15T03:37:19;20.02;;;11.85;;
32228;SDS011;18717;48.034;11.186;2024-01-15T03:39:47;17.17;;;11.20;;
32228;SDS011;18717;48.034;11.186;2024-01-15T03:42:15;21.20;;;11.20;;
32228;SDS011;18717;48.034;11.186;2024-01-15T03:44:42;20.60;;;10.50;;
32228;SDS011;18717;48.034;11.186;2024-01-15T03:47:10;20.92;;;11.13;;
32228;SDS011;18717;48.034;11.186;2024-01-15T03:49:39;16.67;;;9.93;;
32228;SDS011;18717;48.034;11.186;2024-01-15T03:52:07;18.95;;;10.00;;
32228;SDS011;18717;48.034;11.186;2024-01-15T03:54:35;21.95;;;10.98;;
32228;SDS011;18717;48.034;11.186;2024-01-15T03:57:04;17.67;;;10.57;;
32228;SDS011;18717;48.034;11.186;2024-01-15T03:59:32;17.75;;;9.85;;
32228;SDS011;18717;48.034;11.186;2024-01-15T04:02:00;13.88;;;9.27;;
32228;SDS011;18717;48.034;11.186;2024-01-15T04:04:27;21.58;;;10.18;;
32228;SDS011;18717;48.034;11.186;2024-01-15T04:06:56;13.40;;;8.68;;
32228;SDS011;18717;48.034;11.186;2024-01-15T04:09:24;15.25;;;10.00;;
32228;SDS011;18717;48.034;11.186;2024-01-15T04:11:52;17.10;;;10.23;;
32228;SDS011;18717;48.034;11.186;2024-01-15T04:14:20;18.00;;;10.20;;
32228;SDS011;18717;48.034;11.186;2024-01-15T04:16:47;15.65;;;9.35;;
32228;SDS011;18717;48.034;11.186;2024-01-15T04:19:15;9.20;;;7.88;;
32228;SDS011;18717;48.034;11.186;2024-01-15T04:21:43;18.85;;;10.52;;
32228;SDS011;18717;48.034;11.186;2024-01-15T04:24:12;15.23;;;8.95;;
32228;SDS011;18717;48.034;11.186;2024-01-15T04:26:40;13.02;;;9.40;;
32228;SDS011;18717;48.034;11.186;2024-01-15T04:29:09;15.98;;;9.70;;
32228;SDS011;18717;48.034;11.186;2024-01-15T04:31:36;18.75;;;10.02;;
32228;SDS011;18717;48.034;11.186;2024-01-15T04:34:04;14.45;;;10.18;;
32228;SDS011;18717;48.034;11.186;2024-01-15T04:36:38;15.45;;;9.68;;
32228;SDS011;18717;48.034;11.186;2024-01-15T04:39:06;17.73;;;9.13;;
32228;SDS011;18717;48.034;11.186;2024-01-15T04:41:35;15.23;;;8.77;;
32228;SDS011;18717;48.034;11.186;2024-01-15T04:44:03;17.98;;;10.05;;
32228;SDS011;18717;48.034;11.186;2024-01-15T04:46:31;16.10;;;8.40;;
32228;SDS011;18717;48.034;11.186;2024-01-15T04:48:58;14.35;;;9.48;;
32228;SDS011;18717;48.034;11.186;2024-01-15T04:51:26;18.30;;;9.02;;
32228;SDS011;18717;48.034;11.186;2024-01-15T04:53:54;13.23;;;8.98;;
32228;SDS011;18717;48.034;11.186;2024-01-15T04:56:21;12.90;;;8.73;;
32228;SDS011;18717;48.034;11.186;2024-01-15T04:58:50;17.42;;;9.93;;
32228;SDS011;18717;48.034;11.186;2024-01-15T05:01:18;16.15;;;9.75;;
32228;SDS011;18717;48.034;11.186;2024-01-15T05:03:46;12.35;;;8.60;;
32228;SDS011;18717;48.034;11.186;2024-01-15T05:06:14;14.63;;;9.65;;
32228;SDS011;18717;48.034;11.186;2024-01-15T05:08:42;14.57;;;8.63;;
32228;SDS011;18717;48.034;11.186;2024-01-15T05:11:09;13.40;;;8.82;;
32228;SDS011;18717;48.034;11.186;2024-01-15T05:13:37;11.48;;;8.60;;
32228;SDS011;18717;48.034;11.186;2024-01-15T05:16:06;13.13;;;8.95;;
32228;SDS011;18717;48.034;11.186;2024-01-15T05:18:34;16.55;;;9.35;;
32228;SDS011;18717;48.034;11.186;2024-01-15T05:21:03;16.52;;;9.05;;
32228;SDS011;18717;48.034;11.186;2024-01-15T05:23:31;16.98;;;9.57;;
32228;SDS011;18717;48.034;11.186;2024-01-15T05:25:59;18.20;;;9.77;;
32228;SDS011;18717;48.034;11.186;2024-01-15T05:28:27;17.10;;;10.70;;
32228;SDS011;18717;48.034;11.186;2024-01-15T05:30:55;13.23;;;9.63;;
32228;SDS011;18717;48.034;11.186;2024-01-15T05:33:24;11.82;;;7.88;;
32228;SDS011;18717;48.034;11.186;2024-01-15T05:35:52;16.33;;;8.98;;
32228;SDS011;18717;48.034;11.186;2024-01-15T05:38:21;13.10;;;8.93;;
32228;SDS011;18717;48.034;11.186;2024-01-15T05:40:48;20.73;;;9.27;;
32228;SDS011;18717;48.034;11.186;2024-01-15T05:43:16;14.85;;;9.27;;
32228;SDS011;18717;48.034;11.186;2024-01-15T05:45:44;13.25;;;9.52;;
32228;SDS011;18717;48.034;11.186;2024-01-15T05:48:12;14.23;;;9.00;;
32228;SDS011;18717;48.034;11.186;2024-01-15T05:50:41;15.70;;;8.85;;
32228;SDS011;18717;48.034;11.186;2024-01-15T05:53:09;14.48;;;8.95;;
32228;SDS011;18717;48.034;11.186;2024-01-15T05:55:36;14.32;;;9.57;;
32228;SDS011;18717;48.034;11.186;2024-01-15T05:58:04;16.15;;;10.07;;
32228;SDS011;18717;48.034;11.186;2024-01-15T06:00:32;19.17;;;9.57;;
32228;SDS011;18717;48.034;11.186;2024-01-15T06:03:02;12.43;;;9.43;;
32228;SDS011;18717;48.034;11.186;2024-01-15T06:05:29;13.70;;;8.48;;
32228;SDS011;18717;48.034;11.186;2024-01-15T06:07:58;16.60;;;9.35;;
32228;SDS011;18717;48.034;11.186;2024-01-15T06:10:26;16.23;;;9.45;;
32228;SDS011;18717;48.034;11.186;2024-01-15T06:12:54;17.08;;;9.35;;
32228;SDS011;18717;48.034;11.186;2024-01-15T06:15:22;14.43;;;9.38;;
32228;SDS011;18717;48.034;11.186;2024-01-15T06:17:49;21.55;;;10.65;;
32228;SDS011;18717;48.034;11.186;2024-01-15T06:20:17;18.90;;;9.88;;
32228;SDS011;18717;48.034;11.186;2024-01-15T06:22:45;14.73;;;8.93;;
32228;SDS011;18717;48.034;11.186;2024-01-15T06:25:14;18.48;;;9.20;;
32228;SDS011;18717;48.034;11.186;2024-01-15T06:27:42;13.90;;;9.27;;
32228;SDS011;18717;48.034;11.186;2024-01-15T06:30:10;12.32;;;8.35;;
32228;SDS011;18717;48.034;11.186;2024-01-15T06:32:39;12.63;;;8.32;;
32228;SDS011;18717;48.034;11.186;2024-01-15T06:35:07;15.07;;;9.02;;
32228;SDS011;18717;48.034;11.186;2024-01-15T06:37:36;14.35;;;8.40;;
32228;SDS011;18717;48.034;11.186;2024-01-15T06:40:05;15.88;;;9.95;;
32228;SDS011;18717;48.034;11.186;2024-01-15T06:42:35;15.65;;;9.35;;
32228;SDS011;18717;48.034;11.186;2024-01-15T06:45:03;17.50;;;9.25;;
32228;SDS011;18717;48.034;11.186;2024-01-15T06:47:31;12.75;;;8.75;;
32228;SDS011;18717;48.034;11.186;2024-01-15T06:49:59;17.38;;;9.05;;
32228;SDS011;18717;48.034;11.186;2024-01-15T06:52:27;15.93;;;9.70;;
32228;SDS011;18717;48.034;11.186;2024-01-15T06:54:55;19.27;;;9.85;;
32228;SDS011;18717;48.034;11.186;2024-01-15T06:57:22;12.95;;;8.70;;
32228;SDS011;18717;48.034;11.186;2024-01-15T06:59:51;11.63;;;9.38;;
32228;SDS011;18717;48.034;11.186;2024-01-15T07:02:19;17.45;;;10.40;;
32228;SDS011;18717;48.034;11.186;2024-01-15T07:04:47;12.38;;;9.00;;
32228;SDS011;18717;48.034;11.186;2024-01-15T07:07:15;13.88;;;9.13;;
32228;SDS011;18717;48.034;11.186;2024-01-15T07:09:43;17.88;;;9.57;;
32228;SDS011;18717;48.034;11.186;2024-01-15T07:12:11;15.02;;;8.80;;
32228;SDS011;18717;48.034;11.186;2024-01-15T07:14:38;13.52;;;9.82;;
32228;SDS011;18717;48.034;11.186;2024-01-15T07:17:08;14.77;;;9.43;;
32228;SDS011;18717;48.034;11.186;2024-01-15T07:19:35;13.70;;;8.82;;
32228;SDS011;18717;48.034;11.186;2024-01-15T07:22:03;10.63;;;7.78;;
32228;SDS011;18717;48.034;11.186;2024-01-15T07:24:31;15.02;;;9.30;;
32228;SDS011;18717;48.034;11.186;2024-01-15T07:27:00;14.65;;;9.55;;
32228;SDS011;18717;48.034;11.186;2024-01-15T07:29:28;17.23;;;10.32;;
32228;SDS011;18717;48.034;11.186;2024-01-15T07:31:56;14.73;;;9.05;;
32228;SDS011;18717;48.034;11.186;2024-01-15T07:34:25;14.30;;;9.57;;
32228;SDS011;18717;48.034;11.186;2024-01-15T07:36:53;16.13;;;8.05;;
32228;SDS011;18717;48.034;11.186;2024-01-15T07:39:21;17.17;;;8.77;;
32228;SDS011;18717;48.034;11.186;2024-01-15T07:41:49;12.70;;;9.02;;
32228;SDS011;18717;48.034;11.186;2024-01-15T07:44:17;13.35;;;9.07;;
32228;SDS011;18717;48.034;11.186;2024-01-15T07:46:44;16.70;;;9.40;;
32228;SDS011;18717;48.034;11.186;2024-01-15T07:49:12;13.15;;;9.02;;
32228;SDS011;18717;48.034;11.186;2024-01-15T07:51:42;16.30;;;9.77;;
32228;SDS011;18717;48.034;11.186;2024-01-15T07:54:10;12.38;;;8.60;;
32228;SDS011;18717;48.034;11.186;2024-01-15T07:56:52;11.93;;;8.68;;
32228;SDS011;18717;48.034;11.186;2024-01-15T07:59:20;12.60;;;8.98;;
32228;SDS011;18717;48.034;11.186;2024-01-15T08:01:48;12.70;;;8.80;;
32228;SDS011;18717;48.034;11.186;2024-01-15T08:04:16;18.00;;;8.52;;
32228;SDS011;18717;48.034;11.186;2024-01-15T08:06:45;15.57;;;9.50;;
32228;SDS011;18717;48.034;11.186;2024-01-15T08:09:13;13.82;;;9.63;;
32228;SDS011;18717;48.034;11.186;2024-01-15T08:11:42;14.70;;;9.23;;
32228;SDS011;18717;48.034;11.186;2024-01-15T08:14:10;15.13;;;9.43;;
32228;SDS011;18717;48.034;11.186;2024-01-15T08:16:38;14.85;;;10.07;;
32228;SDS011;18717;48.034;11.186;2024-01-15T08:19:06;13.85;;;9.73;;
32228;SDS011;18717;48.034;11.186;2024-01-15T08:21:34;12.00;;;8.75;;
32228;SDS011;18717;48.034;11.186;2024-01-15T08:24:04;15.45;;;9.57;;
32228;SDS011;18717;48.034;11.186;2024-01-15T08:26:32;16.05;;;8.93;;
32228;SDS011;18717;48.034;11.186;2024-01-15T08:29:00;11.98;;;8.52;;
32228;SDS011;18717;48.034;11.186;2024-01-15T08:31:27;15.18;;;8.40;;
32228;SDS011;18717;48.034;11.186;2024-01-15T08:33:55;13.25;;;8.73;;
32228;SDS011;18717;48.034;11.186;2024-01-15T08:36:24;21.58;;;9.50;;
32228;SDS011;18717;48.034;11.186;2024-01-15T08:38:51;11.30;;;8.55;;
32228;SDS011;18717;48.034;11.186;2024-01-15T08:41:20;10.15;;;8.68;;
32228;SDS011;18717;48.034;11.186;2024-01-15T08:43:48;13.05;;;9.23;;
32228;SDS011;18717;48.034;11.186;2024-01-15T08:46:16;15.57;;;8.25;;
32228;SDS011;18717;48.034;11.186;2024-01-15T08:48:44;14.40;;;9.07;;
32228;SDS011;18717;48.034;11.186;2024-01-15T08:51:11;14.25;;;8.73;;
32228;SDS011;18717;48.034;11.186;2024-01-15T08:53:39;16.15;;;9.35;;
32228;SDS011;18717;48.034;11.186;2024-01-15T08:56:07;11.15;;;7.88;;
32228;SDS011;18717;48.034;11.186;2024-01-15T08:58:36;12.40;;;8.45;;
32228;SDS011;18717;48.034;11.186;2024-01-15T09:01:04;9.63;;;8.15;;
32228;SDS011;18717;48.034;11.186;2024-01-15T09:03:32;10.63;;;8.27;;
32228;SDS011;18717;48.034;11.186;2024-01-15T09:06:00;13.18;;;8.80;;
32228;SDS011;18717;48.034;11.186;2024-01-15T09:08:27;14.27;;;8.35;;
32228;SDS011;18717;48.034;11.186;2024-01-15T09:10:55;13.15;;;8.77;;
32228;SDS011;18717;48.034;11.186;2024-01-15T09:13:22;14.80;;;8.95;;
32228;SDS011;18717;48.034;11.186;2024-01-15T09:15:52;14.98;;;9.07;;
32228;SDS011;18717;48.034;11.186;2024-01-15T09:18:19;12.55;;;7.90;;
32228;SDS011;18717;48.034;11.186;2024-01-15T09:20:47;10.70;;;9.02;;
32228;SDS011;18717;48.034;11.186;2024-01-15T09:23:15;12.07;;;7.53;;
32228;SDS011;18717;48.034;11.186;2024-01-15T09:25:43;11.30;;;8.05;;
32228;SDS011;18717;48.034;11.186;2024-01-15T09:28:11;9.18;;;7.75;;
32228;SDS011;18717;48.034;11.186;2024-01-15T09:30:38;13.55;;;7.97;;
32228;SDS011;18717;48.034;11.186;2024-01-15T09:33:08;14.73;;;8.90;;
32228;SDS011;18717;48.034;11.186;2024-01-15T09:35:36;13.23;;;9.07;;
32228;SDS011;18717;48.034;11.186;2024-01-15T09:38:04;11.18;;;7.70;;
32228;SDS011;18717;48.034;11.186;2024-01-15T09:40:32;11.10;;;8.35;;
32228;SDS011;18717;48.034;11.186;2024-01-15T09:43:00;12.00;;;8.13;;
32228;SDS011;18717;48.034;11.186;2024-01-15T09:45:29;8.98;;;7.20;;
32228;SDS011;18717;48.034;11.186;2024-01-15T09:47:57;10.18;;;8.38;;
32228;SDS011;18717;48.034;11.186;2024-01-15T09:50:26;14.07;;;8.70;;
32228;SDS011;18717;48.034;11.186;2024-01-15T09:52:54;10.70;;;8.75;;
32228;SDS011;18717;48.034;11.186;2024-01-15T09:55:23;11.45;;;8.95;;
32228;SDS011;18717;48.034;11.186;2024-01-15T09:57:51;10.57;;;8.48;;
32228;SDS011;18717;48.034;11.186;2024-01-15T10:00:19;9.25;;;7.63;;
32228;SDS011;18717;48.034;11.186;2024-01-15T10:02:47;10.30;;;7.25;;
32228;SDS011;18717;48.034;11.186;2024-01-15T10:05:15;15.65;;;7.93;;
32228;SDS011;18717;48.034;11.186;2024-01-15T10:07:45;12.43;;;8.88;;
32228;SDS011;18717;48.034;11.186;2024-01-15T10:10:13;10.38;;;7.85;;
32228;SDS011;18717;48.034;11.186;2024-01-15T10:12:41;10.13;;;6.85;;
32228;SDS011;18717;48.034;11.186;2024-01-15T10:15:09;9.45;;;8.00;;
32228;SDS011;18717;48.034;11.186;2024-01-15T10:17:38;12.10;;;8.32;;
32228;SDS011;18717;48.034;11.186;2024-01-15T10:20:07;11.23;;;7.95;;
32228;SDS011;18717;48.034;11.186;2024-01-15T10:22:39;9.98;;;7.93;;
32228;SDS011;18717;48.034;11.186;2024-01-15T10:25:11;9.07;;;7.93;;
32228;SDS011;18717;48.034;11.186;2024-01-15T10:27:39;10.07;;;7.70;;
32228;SDS011;18717;48.034;11.186;2024-01-15T10:30:08;9.75;;;7.47;;
32228;SDS011;18717;48.034;11.186;2024-01-15T10:32:37;15.27;;;7.13;;
32228;SDS011;18717;48.034;11.186;2024-01-15T10:35:06;9.18;;;7.82;;
32228;SDS011;18717;48.034;11.186;2024-01-15T10:37:35;8.98;;;7.40;;
32228;SDS011;18717;48.034;11.186;2024-01-15T10:40:03;9.15;;;7.63;;
32228;SDS011;18717;48.034;11.186;2024-01-15T10:42:33;7.57;;;6.82;;
32228;SDS011;18717;48.034;11.186;2024-01-15T10:45:01;8.80;;;6.97;;
32228;SDS011;18717;48.034;11.186;2024-01-15T10:47:29;9.15;;;7.28;;
32228;SDS011;18717;48.034;11.186;2024-01-15T10:49:57;7.30;;;6.32;;
32228;SDS011;18717;48.034;11.186;2024-01-15T10:52:25;9.23;;;6.70;;
32228;SDS011;18717;48.034;11.186;2024-01-15T10:54:55;9.15;;;7.85;;
32228;SDS011;18717;48.034;11.186;2024-01-15T10:57:23;8.43;;;6.28;;
32228;SDS011;18717;48.034;11.186;2024-01-15T10:59:55;7.72;;;6.88;;
32228;SDS011;18717;48.034;11.186;2024-01-15T11:02:23;9.77;;;7.13;;
32228;SDS011;18717;48.034;11.186;2024-01-15T11:04:51;8.65;;;7.00;;
32228;SDS011;18717;48.034;11.186;2024-01-15T11:07:20;7.28;;;6.57;;
32228;SDS011;18717;48.034;11.186;2024-01-15T11:09:53;7.40;;;6.75;;
32228;SDS011;18717;48.034;11.186;2024-01-15T11:12:20;7.63;;;7.03;;
32228;SDS011;18717;48.034;11.186;2024-01-15T11:14:49;7.75;;;6.95;;
32228;SDS011;18717;48.034;11.186;2024-01-15T11:17:18;6.78;;;6.22;;
32228;SDS011;18717;48.034;11.186;2024-01-15T11:19:46;8.02;;;7.18;;
32228;SDS011;18717;48.034;11.186;2024-01-15T11:25:15;7.78;;;7.03;;
32228;SDS011;18717;48.034;11.186;2024-01-15T11:27:45;11.05;;;8.40;;
32228;SDS011;18717;48.034;11.186;2024-01-15T11:32:47;8.35;;;7.65;;
32228;SDS011;18717;48.034;11.186;2024-01-15T11:35:15;9.15;;;8.32;;
32228;SDS011;18717;48.034;11.186;2024-01-15T11:37:57;8.70;;;8.00;;
32228;SDS011;18717;48.034;11.186;2024-01-15T11:40:38;8.13;;;7.22;;
32228;SDS011;18717;48.034;11.186;2024-01-15T11:43:08;11.10;;;8.65;;
32228;SDS011;18717;48.034;11.186;2024-01-15T11:45:36;8.40;;;7.60;;
32228;SDS011;18717;48.034;11.186;2024-01-15T11:48:13;9.68;;;8.75;;
32228;SDS011;18717;48.034;11.186;2024-01-15T11:50:43;7.70;;;6.55;;
32228;SDS011;18717;48.034;11.186;2024-01-15T11:53:25;6.30;;;5.70;;
32228;SDS011;18717;48.034;11.186;2024-01-15T11:55:57;7.40;;;6.57;;
32228;SDS011;18717;48.034;11.186;2024-01-15T11:58:26;7.28;;;6.63;;
32228;SDS011;18717;48.034;11.186;2024-01-15T12:00:54;6.40;;;5.93;;
32228;SDS011;18717;48.034;11.186;2024-01-15T12:03:23;7.43;;;6.70;;
32228;SDS011;18717;48.034;11.186;2024-01-15T12:05:52;7.20;;;6.50;;
32228;SDS011;18717;48.034;11.186;2024-01-15T12:08:23;9.25;;;7.32;;
32228;SDS011;18717;48.034;11.186;2024-01-15T12:10:52;8.43;;;7.50;;
32228;SDS011;18717;48.034;11.186;2024-01-15T12:13:20;7.65;;;6.82;;
32228;SDS011;18717;48.034;11.186;2024-01-15T12:15:48;8.15;;;7.30;;
32228;SDS011;18717;48.034;11.186;2024-01-15T12:18:17;8.18;;;7.35;;
32228;SDS011;18717;48.034;11.186;2024-01-15T12:20:47;8.55;;;7.75;;
32228;SDS011;18717;48.034;11.186;2024-01-15T12:23:15;11.35;;;7.00;;
32228;SDS011;18717;48.034;11.186;2024-01-15T12:25:44;7.80;;;6.97;;
32228;SDS011;18717;48.034;11.186;2024-01-15T12:28:12;8.23;;;7.15;;
32228;SDS011;18717;48.034;11.186;2024-01-15T12:30:40;10.27;;;7.70;;
32228;SDS011;18717;48.034;11.186;2024-01-15T12:33:09;11.20;;;8.48;;
32228;SDS011;18717;48.034;11.186;2024-01-15T12:35:37;10.18;;;7.40;;
32228;SDS011;18717;48.034;11.186;2024-01-15T12:38:06;8.60;;;7.10;;
32228;SDS011;18717;48.034;11.186;2024-01-15T12:40:34;14.10;;;9.25;;
32228;SDS011;18717;48.034;11.186;2024-01-15T12:43:03;13.82;;;8.85;;
32228;SDS011;18717;48.034;11.186;2024-01-15T12:45:32;12.20;;;8.60;;
32228;SDS011;18717;48.034;11.186;2024-01-15T12:48:02;11.52;;;7.78;;
32228;SDS011;18717;48.034;11.186;2024-01-15T12:50:30;10.15;;;8.15;;
32228;SDS011;18717;48.034;11.186;2024-01-15T12:53:00;10.88;;;8.25;;
32228;SDS011;18717;48.034;11.186;2024-01-15T12:55:30;14.73;;;10.05;;
32228;SDS011;18717;48.034;11.186;2024-01-15T12:57:57;18.45;;;10.80;;
32228;SDS011;18717;48.034;11.186;2024-01-15T13:00:25;12.70;;;9.80;;
32228;SDS011;18717;48.034;11.186;2024-01-15T13:02:53;12.10;;;8.77;;
32228;SDS011;18717;48.034;11.186;2024-01-15T13:05:22;14.02;;;10.50;;
32228;SDS011;18717;48.034;11.186;2024-01-15T13:07:51;11.48;;;9.10;;
32228;SDS011;18717;48.034;11.186;2024-01-15T13:10:19;12.52;;;7.93;;
32228;SDS011;18717;48.034;11.186;2024-01-15T13:12:49;8.35;;;7.50;;
32228;SDS011;18717;48.034;11.186;2024-01-15T13:15:17;8.10;;;7.40;;
32228;SDS011;18717;48.034;11.186;2024-01-15T13:17:45;9.98;;;8.88;;
32228;SDS011;18717;48.034;11.186;2024-01-15T13:20:13;9.15;;;8.25;;
32228;SDS011;18717;48.034;11.186;2024-01-15T13:22:41;7.88;;;7.28;;
32228;SDS011;18717;48.034;11.186;2024-01-15T13:25:11;8.65;;;7.60;;
32228;SDS011;18717;48.034;11.186;2024-01-15T13:27:39;14.27;;;7.57;;
32228;SDS011;18717;48.034;11.186;2024-01-15T13:30:10;8.55;;;7.38;;
32228;SDS011;18717;48.034;11.186;2024-01-15T13:32:39;8.13;;;7.37;;
32228;SDS011;18717;48.034;11.186;2024-01-15T13:35:07;7.95;;;7.30;;
32228;SDS011;18717;48.034;11.186;2024-01-15T13:37:39;7.80;;;7.15;;
32228;SDS011;18717;48.034;11.186;2024-01-15T13:40:08;9.15;;;6.85;;
32228;SDS011;18717;48.034;11.186;2024-01-15T13:42:43;8.90;;;8.10;;
32228;SDS011;18717;48.034;11.186;2024-01-15T13:45:13;8.77;;;7.88;;
32228;SDS011;18717;48.034;11.186;2024-01-15T13:47:41;8.10;;;7.40;;
32228;SDS011;18717;48.034;11.186;2024-01-15T13:50:10;8.55;;;7.88;;
32228;SDS011;18717;48.034;11.186;2024-01-15T13:52:38;8.93;;;8.10;;
32228;SDS011;18717;48.034;11.186;2024-01-15T13:55:06;12.15;;;7.78;;
32228;SDS011;18717;48.034;11.186;2024-01-15T13:57:35;8.95;;;7.65;;
32228;SDS011;18717;48.034;11.186;2024-01-15T14:00:03;7.95;;;7.25;;
32228;SDS011;18717;48.034;11.186;2024-01-15T14:02:37;7.85;;;7.15;;
32228;SDS011;18717;48.034;11.186;2024-01-15T14:05:05;8.23;;;7.45;;
32228;SDS011;18717;48.034;11.186;2024-01-15T14:07:33;6.93;;;6.40;;
32228;SDS011;18717;48.034;11.186;2024-01-15T14:10:01;8.45;;;7.57;;
32228;SDS011;18717;48.034;11.186;2024-01-15T14:12:30;10.57;;;7.40;;
32228;SDS011;18717;48.034;11.186;2024-01-15T14:14:58;6.85;;;6.45;;
32228;SDS011;18717;48.034;11.186;2024-01-15T14:17:27;7.63;;;7.03;;
32228;SDS011;18717;48.034;11.186;2024-01-15T14:19:56;7.25;;;6.75;;
32228;SDS011;18717;48.034;11.186;2024-01-15T14:22:24;7.80;;;7.10;;
32228;SDS011;18717;48.034;11.186;2024-01-15T14:24:51;10.10;;;7.65;;
32228;SDS011;18717;48.034;11.186;2024-01-15T14:27:20;10.30;;;7.72;;
32228;SDS011;18717;48.034;11.186;2024-01-15T14:29:49;8.63;;;7.82;;
32228;SDS011;18717;48.034;11.186;2024-01-15T14:32:16;7.95;;;7.20;;
32228;SDS011;18717;48.034;11.186;2024-01-15T14:34:44;7.18;;;6.50;;